sensor_id;sensor_type;location;lat;lon;timestamp;temperature;humidity
37754;DHT22;23596;52.520;13.464;2022-10-30T00:02:01;16.30;99.90
37754;DHT22;23596;52.520;13.464;2022-10-30T00:04:26;16.30;99.90
37754;DHT22;23596;52.520;13.464;2022-10-30T00:06:52;16.20;99.90
37754;DHT22;23596;52.520;13.464;2022-10-30T00:09:17;16.20;99.90
37754;DHT22;23596;52.520;13.464;2022-10-30T00:11:43;16.20;99.90
37754;DHT22;23596;52.520;13.464;2022-10-30T00:14:08;16.10;99.90
37754;DHT22;23596;52.520;13.464;2022-10-30T00:16:34;16.10;99.90
37754;DHT22;23596;52.520;13.464;2022-10-30T00:19:00;16.10;99.90
37754;DHT22;23596;52.520;13.464;2022-10-30T00:21:26;16.10;99.90
37754;DHT22;23596;52.520;13.464;2022-10-30T00:23:52;16.10;99.90
37754;DHT22;23596;52.520;13.464;2022-10-30T00:26:20;16.10;99.90
37754;DHT22;23596;52.520;13.464;2022-10-30T00:28:53;16.00;99.90
37754;DHT22;23596;52.520;13.464;2022-10-30T00:31:19;16.00;99.90
37754;DHT22;23596;52.520;13.464;2022-10-30T00:33:52;16.00;99.90
37754;DHT22;23596;52.520;13.464;2022-10-30T00:36:18;16.00;99.90
37754;DHT22;23596;52.520;13.464;2022-10-30T00:38:44;15.80;99.90
37754;DHT22;23596;52.520;13.464;2022-10-30T00:41:18;15.90;99.90
37754;DHT22;23596;52.520;13.464;2022-10-30T00:43:44;15.90;99.90
37754;DHT22;23596;52.520;13.464;2022-10-30T00:46:34;15.80;99.90
37754;DHT22;23596;52.520;13.464;2022-10-30T00:49:05;15.80;99.90
37754;DHT22;23596;52.520;13.464;2022-10-30T00:51:34;15.80;99.90
37754;DHT22;23596;52.520;13.464;2022-10-30T00:54:02;15.70;99.90
37754;DHT22;23596;52.520;13.464;2022-10-30T00:56:30;15.70;99.90
37754;DHT22;23596;52.520;13.464;2022-10-30T00:59:01;15.70;99.90
37754;DHT22;23596;52.520;13.464;2022-10-30T01:01:28;15.70;99.90
37754;DHT22;23596;52.520;13.464;2022-10-30T01:03:58;15.70;99.90
37754;DHT22;23596;52.520;13.464;2022-10-30T01:06:26;15.70;99.90
37754;DHT22;23596;52.520;13.464;2022-10-30T01:08:53;15.70;99.90
37754;DHT22;23596;52.520;13.464;2022-10-30T01:11:19;15.60;99.90
37754;DHT22;23596;52.520;13.464;2022-10-30T01:13:46;15.60;99.90
37754;DHT22;23596;52.520;13.464;2022-10-30T01:22:01;15.60;99.90
37754;DHT22;23596;52.520;13.464;2022-10-30T01:31:19;15.50;99.90
37754;DHT22;23596;52.520;13.464;2022-10-30T01:34:24;15.50;99.90
37754;DHT22;23596;52.520;13.464;2022-10-30T01:36:35;15.40;99.90
37754;DHT22;23596;52.520;13.464;2022-10-30T01:39:09;15.40;99.90
37754;DHT22;23596;52.520;13.464;2022-10-30T01:41:36;15.40;99.90
37754;DHT22;23596;52.520;13.464;2022-10-30T01:44:09;15.30;99.90
37754;DHT22;23596;52.520;13.464;2022-10-30T01:49:33;15.20;99.90
37754;DHT22;23596;52.520;13.464;2022-10-30T01:54:56;15.20;99.90
37754;DHT22;23596;52.520;13.464;2022-10-30T01:57:37;15.20;99.90
37754;DHT22;23596;52.520;13.464;2022-10-30T02:00:08;15.20;99.90
37754;DHT22;23596;52.520;13.464;2022-10-30T02:02:34;15.20;99.90
37754;DHT22;23596;52.520;13.464;2022-10-30T02:05:00;15.20;99.90
37754;DHT22;23596;52.520;13.464;2022-10-30T02:07:26;15.20;99.90
37754;DHT22;23596;52.520;13.464;2022-10-30T02:09:53;15.10;99.90
37754;DHT22;23596;52.520;13.464;2022-10-30T02:12:20;15.10;99.90
37754;DHT22;23596;52.520;13.464;2022-10-30T02:14:47;15.10;99.90
37754;DHT22;23596;52.520;13.464;2022-10-30T02:17:13;15.00;99.90
37754;DHT22;23596;52.520;13.464;2022-10-30T02:19:38;15.00;99.90
37754;DHT22;23596;52.520;13.464;2022-10-30T02:22:04;15.00;99.90
37754;DHT22;23596;52.520;13.464;2022-10-30T02:24:30;15.50;99.90
37754;DHT22;23596;52.520;13.464;2022-10-30T02:26:56;15.00;99.90
37754;DHT22;23596;52.520;13.464;2022-10-30T02:29:22;14.90;99.90
37754;DHT22;23596;52.520;13.464;2022-10-30T02:31:48;14.50;99.90
37754;DHT22;23596;52.520;13.464;2022-10-30T02:34:14;14.90;99.90
37754;DHT22;23596;52.520;13.464;2022-10-30T02:36:39;15.60;99.90
37754;DHT22;23596;52.520;13.464;2022-10-30T02:39:05;14.90;99.90
37754;DHT22;23596;52.520;13.464;2022-10-30T02:41:31;14.90;99.90
37754;DHT22;23596;52.520;13.464;2022-10-30T02:43:56;15.00;99.90
37754;DHT22;23596;52.520;13.464;2022-10-30T02:46:22;15.00;99.90
37754;DHT22;23596;52.520;13.464;2022-10-30T02:48:48;15.00;99.90
37754;DHT22;23596;52.520;13.464;2022-10-30T02:51:13;15.00;99.90
37754;DHT22;23596;52.520;13.464;2022-10-30T02:53:39;15.00;99.90
37754;DHT22;23596;52.520;13.464;2022-10-30T02:56:06;14.90;99.90
37754;DHT22;23596;52.520;13.464;2022-10-30T02:58:33;14.90;99.90
37754;DHT22;23596;52.520;13.464;2022-10-30T03:03:35;15.00;99.90
37754;DHT22;23596;52.520;13.464;2022-10-30T03:06:02;14.90;99.90
37754;DHT22;23596;52.520;13.464;2022-10-30T03:08:28;14.90;99.90
37754;DHT22;23596;52.520;13.464;2022-10-30T03:11:20;14.90;99.90
37754;DHT22;23596;52.520;13.464;2022-10-30T03:13:47;14.90;99.90
37754;DHT22;23596;52.520;13.464;2022-10-30T03:16:18;15.00;99.90
37754;DHT22;23596;52.520;13.464;2022-10-30T03:18:44;15.00;99.90
37754;DHT22;23596;52.520;13.464;2022-10-30T03:21:13;15.00;99.90
37754;DHT22;23596;52.520;13.464;2022-10-30T03:23:39;15.00;99.90
37754;DHT22;23596;52.520;13.464;2022-10-30T03:26:05;14.90;99.90
37754;DHT22;23596;52.520;13.464;2022-10-30T03:28:31;14.90;99.90
37754;DHT22;23596;52.520;13.464;2022-10-30T03:31:08;14.90;99.90
37754;DHT22;23596;52.520;13.464;2022-10-30T03:33:35;14.90;99.90
37754;DHT22;23596;52.520;13.464;2022-10-30T03:36:02;14.80;99.90
37754;DHT22;23596;52.520;13.464;2022-10-30T03:38:28;14.80;99.90
37754;DHT22;23596;52.520;13.464;2022-10-30T03:40:54;14.80;99.90
37754;DHT22;23596;52.520;13.464;2022-10-30T03:43:20;14.80;99.90
37754;DHT22;23596;52.520;13.464;2022-10-30T03:45:50;14.80;99.90
37754;DHT22;23596;52.520;13.464;2022-10-30T03:48:18;14.90;99.90
37754;DHT22;23596;52.520;13.464;2022-10-30T03:50:44;14.80;99.90
37754;DHT22;23596;52.520;13.464;2022-10-30T03:53:09;14.80;99.90
37754;DHT22;23596;52.520;13.464;2022-10-30T03:55:35;14.90;99.90
37754;DHT22;23596;52.520;13.464;2022-10-30T03:58:01;14.90;99.90
37754;DHT22;23596;52.520;13.464;2022-10-30T04:00:26;14.90;99.90
37754;DHT22;23596;52.520;13.464;2022-10-30T04:02:52;14.90;99.90
37754;DHT22;23596;52.520;13.464;2022-10-30T04:05:19;14.90;99.90
37754;DHT22;23596;52.520;13.464;2022-10-30T04:07:46;14.90;99.90
37754;DHT22;23596;52.520;13.464;2022-10-30T04:10:12;14.90;99.90
37754;DHT22;23596;52.520;13.464;2022-10-30T04:12:38;14.90;99.90
37754;DHT22;23596;52.520;13.464;2022-10-30T04:15:05;14.90;99.90
37754;DHT22;23596;52.520;13.464;2022-10-30T04:17:30;14.90;99.90
37754;DHT22;23596;52.520;13.464;2022-10-30T04:19:56;14.90;99.90
37754;DHT22;23596;52.520;13.464;2022-10-30T04:22:21;14.90;99.90
37754;DHT22;23596;52.520;13.464;2022-10-30T04:24:47;14.90;99.90
37754;DHT22;23596;52.520;13.464;2022-10-30T04:27:14;14.90;99.90
37754;DHT22;23596;52.520;13.464;2022-10-30T04:29:39;14.90;99.90
37754;DHT22;23596;52.520;13.464;2022-10-30T04:32:07;14.90;99.90
37754;DHT22;23596;52.520;13.464;2022-10-30T04:34:32;14.90;99.90
37754;DHT22;23596;52.520;13.464;2022-10-30T04:36:58;14.90;99.90
37754;DHT22;23596;52.520;13.464;2022-10-30T04:39:23;14.90;99.90
37754;DHT22;23596;52.520;13.464;2022-10-30T04:41:48;14.90;99.90
37754;DHT22;23596;52.520;13.464;2022-10-30T04:44:14;14.80;99.90
37754;DHT22;23596;52.520;13.464;2022-10-30T04:46:40;14.80;99.90
37754;DHT22;23596;52.520;13.464;2022-10-30T04:49:05;14.80;99.90
37754;DHT22;23596;52.520;13.464;2022-10-30T04:51:31;14.80;99.90
37754;DHT22;23596;52.520;13.464;2022-10-30T04:53:56;15.30;99.90
37754;DHT22;23596;52.520;13.464;2022-10-30T04:56:23;14.80;99.90
37754;DHT22;23596;52.520;13.464;2022-10-30T04:58:48;14.80;99.90
37754;DHT22;23596;52.520;13.464;2022-10-30T05:01:14;14.80;99.90
37754;DHT22;23596;52.520;13.464;2022-10-30T05:03:40;14.80;99.90
37754;DHT22;23596;52.520;13.464;2022-10-30T05:06:10;14.90;99.90
37754;DHT22;23596;52.520;13.464;2022-10-30T05:08:37;14.90;99.90
37754;DHT22;23596;52.520;13.464;2022-10-30T05:11:03;14.90;99.90
37754;DHT22;23596;52.520;13.464;2022-10-30T05:13:29;14.90;99.90
37754;DHT22;23596;52.520;13.464;2022-10-30T05:15:55;14.90;99.90
37754;DHT22;23596;52.520;13.464;2022-10-30T05:18:20;15.00;99.90
37754;DHT22;23596;52.520;13.464;2022-10-30T05:20:46;14.90;99.90
37754;DHT22;23596;52.520;13.464;2022-10-30T05:23:12;14.90;99.90
37754;DHT22;23596;52.520;13.464;2022-10-30T05:25:38;15.00;99.90
37754;DHT22;23596;52.520;13.464;2022-10-30T05:28:05;15.00;99.90
37754;DHT22;23596;52.520;13.464;2022-10-30T05:30:33;15.00;99.90
37754;DHT22;23596;52.520;13.464;2022-10-30T05:33:04;15.00;99.90
37754;DHT22;23596;52.520;13.464;2022-10-30T05:35:30;15.10;99.90
37754;DHT22;23596;52.520;13.464;2022-10-30T05:37:57;15.00;99.90
37754;DHT22;23596;52.520;13.464;2022-10-30T05:40:23;15.00;99.90
37754;DHT22;23596;52.520;13.464;2022-10-30T05:42:48;14.90;99.90
37754;DHT22;23596;52.520;13.464;2022-10-30T05:45:15;15.00;99.90
37754;DHT22;23596;52.520;13.464;2022-10-30T05:50:07;15.00;99.90
37754;DHT22;23596;52.520;13.464;2022-10-30T05:52:33;14.90;99.90
37754;DHT22;23596;52.520;13.464;2022-10-30T05:54:59;14.90;99.90
37754;DHT22;23596;52.520;13.464;2022-10-30T05:57:29;15.00;99.90
37754;DHT22;23596;52.520;13.464;2022-10-30T05:59:55;15.00;99.90
37754;DHT22;23596;52.520;13.464;2022-10-30T06:02:20;15.00;99.90
37754;DHT22;23596;52.520;13.464;2022-10-30T06:04:46;15.60;99.90
37754;DHT22;23596;52.520;13.464;2022-10-30T06:07:12;14.90;99.90
37754;DHT22;23596;52.520;13.464;2022-10-30T06:09:37;14.90;99.90
37754;DHT22;23596;52.520;13.464;2022-10-30T06:12:03;14.90;99.90
37754;DHT22;23596;52.520;13.464;2022-10-30T06:14:29;14.90;99.90
37754;DHT22;23596;52.520;13.464;2022-10-30T06:16:54;14.90;99.90
37754;DHT22;23596;52.520;13.464;2022-10-30T06:19:20;14.90;99.90
37754;DHT22;23596;52.520;13.464;2022-10-30T06:21:46;14.90;99.90
37754;DHT22;23596;52.520;13.464;2022-10-30T06:24:11;15.80;99.90
37754;DHT22;23596;52.520;13.464;2022-10-30T06:26:37;14.90;99.90
37754;DHT22;23596;52.520;13.464;2022-10-30T06:29:02;14.90;99.90
37754;DHT22;23596;52.520;13.464;2022-10-30T06:31:28;14.90;99.90
37754;DHT22;23596;52.520;13.464;2022-10-30T06:33:54;14.90;99.90
37754;DHT22;23596;52.520;13.464;2022-10-30T06:36:19;14.90;99.90
37754;DHT22;23596;52.520;13.464;2022-10-30T06:38:45;14.90;99.90
37754;DHT22;23596;52.520;13.464;2022-10-30T06:41:10;14.90;99.90
37754;DHT22;23596;52.520;13.464;2022-10-30T06:43:36;14.90;99.90
37754;DHT22;23596;52.520;13.464;2022-10-30T06:46:02;14.90;99.90
37754;DHT22;23596;52.520;13.464;2022-10-30T06:48:27;14.90;99.90
37754;DHT22;23596;52.520;13.464;2022-10-30T06:50:54;14.90;99.90
37754;DHT22;23596;52.520;13.464;2022-10-30T06:53:20;14.90;99.90
37754;DHT22;23596;52.520;13.464;2022-10-30T06:55:56;14.90;99.90
37754;DHT22;23596;52.520;13.464;2022-10-30T06:58:22;14.90;99.90
37754;DHT22;23596;52.520;13.464;2022-10-30T07:00:48;14.90;99.90
37754;DHT22;23596;52.520;13.464;2022-10-30T07:03:14;15.00;99.90
37754;DHT22;23596;52.520;13.464;2022-10-30T07:05:39;15.00;99.90
37754;DHT22;23596;52.520;13.464;2022-10-30T07:08:05;15.00;99.90
37754;DHT22;23596;52.520;13.464;2022-10-30T07:10:30;15.10;99.90
37754;DHT22;23596;52.520;13.464;2022-10-30T07:12:56;15.10;99.90
37754;DHT22;23596;52.520;13.464;2022-10-30T07:15:23;15.00;99.90
37754;DHT22;23596;52.520;13.464;2022-10-30T07:17:57;15.00;99.90
37754;DHT22;23596;52.520;13.464;2022-10-30T07:20:24;15.00;99.90
37754;DHT22;23596;52.520;13.464;2022-10-30T07:22:50;15.00;99.90
37754;DHT22;23596;52.520;13.464;2022-10-30T07:25:16;14.90;99.90
37754;DHT22;23596;52.520;13.464;2022-10-30T07:27:46;15.00;99.90
37754;DHT22;23596;52.520;13.464;2022-10-30T07:30:14;15.00;99.90
37754;DHT22;23596;52.520;13.464;2022-10-30T07:32:40;15.00;99.90
37754;DHT22;23596;52.520;13.464;2022-10-30T07:35:06;15.00;99.90
37754;DHT22;23596;52.520;13.464;2022-10-30T07:37:32;15.00;99.90
37754;DHT22;23596;52.520;13.464;2022-10-30T07:39:57;15.00;99.90
37754;DHT22;23596;52.520;13.464;2022-10-30T07:42:23;15.00;99.90
37754;DHT22;23596;52.520;13.464;2022-10-30T07:44:48;15.00;99.90
37754;DHT22;23596;52.520;13.464;2022-10-30T07:47:14;15.00;99.90
37754;DHT22;23596;52.520;13.464;2022-10-30T07:49:40;15.00;99.90
37754;DHT22;23596;52.520;13.464;2022-10-30T07:52:05;15.10;99.90
37754;DHT22;23596;52.520;13.464;2022-10-30T07:54:31;15.10;99.90
37754;DHT22;23596;52.520;13.464;2022-10-30T07:56:56;15.10;99.90
37754;DHT22;23596;52.520;13.464;2022-10-30T07:59:23;15.10;99.90
37754;DHT22;23596;52.520;13.464;2022-10-30T08:01:49;15.10;99.90
37754;DHT22;23596;52.520;13.464;2022-10-30T08:04:15;15.20;99.90
37754;DHT22;23596;52.520;13.464;2022-10-30T08:06:40;15.20;99.90
37754;DHT22;23596;52.520;13.464;2022-10-30T08:09:06;15.30;99.90
37754;DHT22;23596;52.520;13.464;2022-10-30T08:11:31;15.30;99.90
37754;DHT22;23596;52.520;13.464;2022-10-30T08:13:57;15.40;99.90
37754;DHT22;23596;52.520;13.464;2022-10-30T08:16:23;15.40;99.90
37754;DHT22;23596;52.520;13.464;2022-10-30T08:18:48;15.50;99.90
37754;DHT22;23596;52.520;13.464;2022-10-30T08:21:14;15.50;99.90
37754;DHT22;23596;52.520;13.464;2022-10-30T08:23:39;15.60;99.90
37754;DHT22;23596;52.520;13.464;2022-10-30T08:26:05;15.70;99.90
37754;DHT22;23596;52.520;13.464;2022-10-30T08:28:31;15.70;99.90
37754;DHT22;23596;52.520;13.464;2022-10-30T08:30:58;15.70;99.90
37754;DHT22;23596;52.520;13.464;2022-10-30T08:33:24;15.80;99.90
37754;DHT22;23596;52.520;13.464;2022-10-30T08:35:52;15.80;99.90
37754;DHT22;23596;52.520;13.464;2022-10-30T08:38:18;15.90;99.90
37754;DHT22;23596;52.520;13.464;2022-10-30T08:40:44;15.80;99.90
37754;DHT22;23596;52.520;13.464;2022-10-30T08:43:10;15.80;99.90
37754;DHT22;23596;52.520;13.464;2022-10-30T08:45:36;15.80;99.90
37754;DHT22;23596;52.520;13.464;2022-10-30T08:48:03;15.80;99.90
37754;DHT22;23596;52.520;13.464;2022-10-30T08:50:31;15.90;99.90
37754;DHT22;23596;52.520;13.464;2022-10-30T08:53:05;15.90;99.90
37754;DHT22;23596;52.520;13.464;2022-10-30T08:55:31;15.90;99.90
37754;DHT22;23596;52.520;13.464;2022-10-30T08:57:57;15.90;99.90
37754;DHT22;23596;52.520;13.464;2022-10-30T09:00:23;15.90;99.90
37754;DHT22;23596;52.520;13.464;2022-10-30T09:02:49;16.00;99.90
37754;DHT22;23596;52.520;13.464;2022-10-30T09:05:15;15.90;99.90
37754;DHT22;23596;52.520;13.464;2022-10-30T09:07:41;16.00;99.90
37754;DHT22;23596;52.520;13.464;2022-10-30T09:10:07;16.00;99.90
37754;DHT22;23596;52.520;13.464;2022-10-30T09:12:32;18.40;99.90
37754;DHT22;23596;52.520;13.464;2022-10-30T09:14:58;16.10;99.90
37754;DHT22;23596;52.520;13.464;2022-10-30T09:17:23;16.20;99.90
37754;DHT22;23596;52.520;13.464;2022-10-30T09:19:49;16.20;99.90
37754;DHT22;23596;52.520;13.464;2022-10-30T09:22:14;16.30;99.90
37754;DHT22;23596;52.520;13.464;2022-10-30T09:24:40;16.30;99.90
37754;DHT22;23596;52.520;13.464;2022-10-30T09:27:06;16.30;99.90
37754;DHT22;23596;52.520;13.464;2022-10-30T09:29:32;16.40;99.90
37754;DHT22;23596;52.520;13.464;2022-10-30T09:31:58;16.40;99.90
37754;DHT22;23596;52.520;13.464;2022-10-30T09:34:24;16.40;99.90
37754;DHT22;23596;52.520;13.464;2022-10-30T09:36:49;16.40;99.90
37754;DHT22;23596;52.520;13.464;2022-10-30T09:39:15;16.50;99.90
37754;DHT22;23596;52.520;13.464;2022-10-30T09:46:58;16.70;99.90
37754;DHT22;23596;52.520;13.464;2022-10-30T09:52:25;16.80;99.90
37754;DHT22;23596;52.520;13.464;2022-10-30T09:54:58;16.80;99.90
37754;DHT22;23596;52.520;13.464;2022-10-30T09:57:50;16.80;99.90
37754;DHT22;23596;52.520;13.464;2022-10-30T10:00:24;16.80;99.90
37754;DHT22;23596;52.520;13.464;2022-10-30T10:05:57;16.80;99.90
37754;DHT22;23596;52.520;13.464;2022-10-30T10:11:13;16.80;99.90
37754;DHT22;23596;52.520;13.464;2022-10-30T10:13:48;17.00;99.90
37754;DHT22;23596;52.520;13.464;2022-10-30T10:16:23;17.10;99.90
37754;DHT22;23596;52.520;13.464;2022-10-30T10:19:09;17.20;99.90
37754;DHT22;23596;52.520;13.464;2022-10-30T10:21:50;17.40;99.90
37754;DHT22;23596;52.520;13.464;2022-10-30T10:24:26;17.50;99.90
37754;DHT22;23596;52.520;13.464;2022-10-30T10:30:03;17.70;99.90
37754;DHT22;23596;52.520;13.464;2022-10-30T10:41:52;18.10;99.90
37754;DHT22;23596;52.520;13.464;2022-10-30T10:44:29;18.20;99.90
37754;DHT22;23596;52.520;13.464;2022-10-30T10:47:12;18.30;99.90
37754;DHT22;23596;52.520;13.464;2022-10-30T10:50:02;18.30;99.90
37754;DHT22;23596;52.520;13.464;2022-10-30T10:52:37;18.40;99.90
37754;DHT22;23596;52.520;13.464;2022-10-30T10:55:12;18.40;99.90
37754;DHT22;23596;52.520;13.464;2022-10-30T10:57:40;18.40;99.90
37754;DHT22;23596;52.520;13.464;2022-10-30T11:00:15;18.50;99.90
37754;DHT22;23596;52.520;13.464;2022-10-30T11:05:37;18.80;99.90
37754;DHT22;23596;52.520;13.464;2022-10-30T11:08:12;18.90;99.90
37754;DHT22;23596;52.520;13.464;2022-10-30T11:10:39;19.00;99.90
37754;DHT22;23596;52.520;13.464;2022-10-30T11:13:05;19.00;99.90
37754;DHT22;23596;52.520;13.464;2022-10-30T11:15:46;19.00;99.90
37754;DHT22;23596;52.520;13.464;2022-10-30T11:18:14;19.10;99.90
37754;DHT22;23596;52.520;13.464;2022-10-30T11:23:39;19.30;99.90
37754;DHT22;23596;52.520;13.464;2022-10-30T11:31:35;19.40;99.90
37754;DHT22;23596;52.520;13.464;2022-10-30T11:36:44;19.30;99.90
37754;DHT22;23596;52.520;13.464;2022-10-30T11:39:16;19.40;99.90
37754;DHT22;23596;52.520;13.464;2022-10-30T11:41:48;19.50;99.90
37754;DHT22;23596;52.520;13.464;2022-10-30T11:44:18;19.60;99.90
37754;DHT22;23596;52.520;13.464;2022-10-30T11:46:44;19.70;99.90
37754;DHT22;23596;52.520;13.464;2022-10-30T11:49:55;19.60;99.90
37754;DHT22;23596;52.520;13.464;2022-10-30T11:52:23;19.70;99.90
37754;DHT22;23596;52.520;13.464;2022-10-30T11:54:55;19.80;99.90
37754;DHT22;23596;52.520;13.464;2022-10-30T11:59:53;20.00;99.90
37754;DHT22;23596;52.520;13.464;2022-10-30T12:02:27;20.30;99.90
37754;DHT22;23596;52.520;13.464;2022-10-30T12:05:00;20.40;99.90
37754;DHT22;23596;52.520;13.464;2022-10-30T12:07:33;20.50;99.90
37754;DHT22;23596;52.520;13.464;2022-10-30T12:09:59;20.50;99.90
37754;DHT22;23596;52.520;13.464;2022-10-30T12:12:28;20.60;99.90
37754;DHT22;23596;52.520;13.464;2022-10-30T12:15:17;20.70;99.90
37754;DHT22;23596;52.520;13.464;2022-10-30T12:17:51;20.90;99.90
37754;DHT22;23596;52.520;13.464;2022-10-30T12:20:17;21.00;99.90
37754;DHT22;23596;52.520;13.464;2022-10-30T12:22:43;21.10;99.90
37754;DHT22;23596;52.520;13.464;2022-10-30T12:27:50;21.10;99.90
37754;DHT22;23596;52.520;13.464;2022-10-30T12:30:22;21.10;99.90
37754;DHT22;23596;52.520;13.464;2022-10-30T12:32:49;21.10;99.90
37754;DHT22;23596;52.520;13.464;2022-10-30T12:37:48;21.30;99.90
37754;DHT22;23596;52.520;13.464;2022-10-30T12:40:27;21.40;99.90
37754;DHT22;23596;52.520;13.464;2022-10-30T12:42:57;21.40;99.90
37754;DHT22;23596;52.520;13.464;2022-10-30T12:45:39;21.50;99.90
37754;DHT22;23596;52.520;13.464;2022-10-30T12:48:18;21.50;99.90
37754;DHT22;23596;52.520;13.464;2022-10-30T12:53:47;21.70;99.90
37754;DHT22;23596;52.520;13.464;2022-10-30T12:56:28;21.90;99.90
37754;DHT22;23596;52.520;13.464;2022-10-30T13:02:18;21.80;99.90
37754;DHT22;23596;52.520;13.464;2022-10-30T13:04:49;21.80;99.90
37754;DHT22;23596;52.520;13.464;2022-10-30T13:07:25;21.80;99.90
37754;DHT22;23596;52.520;13.464;2022-10-30T13:12:48;21.80;99.90
37754;DHT22;23596;52.520;13.464;2022-10-30T13:15:39;21.90;99.90
37754;DHT22;23596;52.520;13.464;2022-10-30T13:18:25;21.90;99.90
37754;DHT22;23596;52.520;13.464;2022-10-30T13:24:00;22.00;99.90
37754;DHT22;23596;52.520;13.464;2022-10-30T13:26:56;22.00;99.90
37754;DHT22;23596;52.520;13.464;2022-10-30T13:29:30;22.10;99.90
37754;DHT22;23596;52.520;13.464;2022-10-30T13:35:31;22.30;99.90
37754;DHT22;23596;52.520;13.464;2022-10-30T13:43:24;22.10;99.90
37754;DHT22;23596;52.520;13.464;2022-10-30T13:46:14;22.30;99.90
37754;DHT22;23596;52.520;13.464;2022-10-30T13:49:13;22.20;99.90
37754;DHT22;23596;52.520;13.464;2022-10-30T13:51:51;22.20;99.90
37754;DHT22;23596;52.520;13.464;2022-10-30T13:54:18;22.10;99.90
37754;DHT22;23596;52.520;13.464;2022-10-30T13:56:46;22.00;99.90
37754;DHT22;23596;52.520;13.464;2022-10-30T14:05:24;22.00;99.90
37754;DHT22;23596;52.520;13.464;2022-10-30T14:10:56;21.70;99.90
37754;DHT22;23596;52.520;13.464;2022-10-30T14:19:02;21.70;99.90
37754;DHT22;23596;52.520;13.464;2022-10-30T14:21:37;21.70;99.90
37754;DHT22;23596;52.520;13.464;2022-10-30T14:26:35;21.60;99.90
37754;DHT22;23596;52.520;13.464;2022-10-30T14:31:55;21.40;99.90
37754;DHT22;23596;52.520;13.464;2022-10-30T14:39:52;21.20;99.90
37754;DHT22;23596;52.520;13.464;2022-10-30T14:58:30;21.10;99.90
37754;DHT22;23596;52.520;13.464;2022-10-30T15:06:20;21.00;99.90
37754;DHT22;23596;52.520;13.464;2022-10-30T15:09:23;21.10;99.90
37754;DHT22;23596;52.520;13.464;2022-10-30T15:11:59;21.00;99.90
37754;DHT22;23596;52.520;13.464;2022-10-30T15:14:37;21.00;99.90
37754;DHT22;23596;52.520;13.464;2022-10-30T15:17:33;20.90;99.90
37754;DHT22;23596;52.520;13.464;2022-10-30T15:19:59;20.80;99.90
37754;DHT22;23596;52.520;13.464;2022-10-30T15:22:27;20.60;99.90
37754;DHT22;23596;52.520;13.464;2022-10-30T15:24:54;20.50;99.90
37754;DHT22;23596;52.520;13.464;2022-10-30T15:27:21;20.30;99.90
37754;DHT22;23596;52.520;13.464;2022-10-30T15:29:52;20.10;99.90
37754;DHT22;23596;52.520;13.464;2022-10-30T15:32:21;20.00;99.90
37754;DHT22;23596;52.520;13.464;2022-10-30T15:35:01;19.90;99.90
37754;DHT22;23596;52.520;13.464;2022-10-30T15:37:28;19.70;99.90
37754;DHT22;23596;52.520;13.464;2022-10-30T15:42:38;19.50;99.90
37754;DHT22;23596;52.520;13.464;2022-10-30T15:45:04;19.40;99.90
37754;DHT22;23596;52.520;13.464;2022-10-30T15:47:30;19.30;99.90
37754;DHT22;23596;52.520;13.464;2022-10-30T15:49:56;19.10;99.90
37754;DHT22;23596;52.520;13.464;2022-10-30T15:52:28;19.00;99.90
37754;DHT22;23596;52.520;13.464;2022-10-30T15:55:06;18.90;99.90
37754;DHT22;23596;52.520;13.464;2022-10-30T15:57:42;18.80;99.90
37754;DHT22;23596;52.520;13.464;2022-10-30T16:02:57;18.70;99.90
37754;DHT22;23596;52.520;13.464;2022-10-30T16:05:24;18.50;99.90
37754;DHT22;23596;52.520;13.464;2022-10-30T16:07:49;18.50;99.90
37754;DHT22;23596;52.520;13.464;2022-10-30T16:10:16;18.40;99.90
37754;DHT22;23596;52.520;13.464;2022-10-30T16:12:43;18.30;99.90
37754;DHT22;23596;52.520;13.464;2022-10-30T16:15:24;18.30;99.90
37754;DHT22;23596;52.520;13.464;2022-10-30T16:18:18;18.20;99.90
37754;DHT22;23596;52.520;13.464;2022-10-30T16:20:53;18.10;99.90
37754;DHT22;23596;52.520;13.464;2022-10-30T16:23:20;18.00;99.90
37754;DHT22;23596;52.520;13.464;2022-10-30T16:25:47;18.00;99.90
37754;DHT22;23596;52.520;13.464;2022-10-30T16:28:32;17.90;99.90
37754;DHT22;23596;52.520;13.464;2022-10-30T16:31:00;17.80;99.90
37754;DHT22;23596;52.520;13.464;2022-10-30T16:33:29;17.80;99.90
37754;DHT22;23596;52.520;13.464;2022-10-30T16:35:56;17.70;99.90
37754;DHT22;23596;52.520;13.464;2022-10-30T16:38:23;17.70;99.90
37754;DHT22;23596;52.520;13.464;2022-10-30T16:40:51;17.60;99.90
37754;DHT22;23596;52.520;13.464;2022-10-30T16:45:50;17.50;99.90
37754;DHT22;23596;52.520;13.464;2022-10-30T16:48:20;17.50;99.90
37754;DHT22;23596;52.520;13.464;2022-10-30T16:50:52;17.40;99.90
37754;DHT22;23596;52.520;13.464;2022-10-30T16:53:21;17.40;99.90
37754;DHT22;23596;52.520;13.464;2022-10-30T16:55:48;17.30;99.90
37754;DHT22;23596;52.520;13.464;2022-10-30T16:58:15;17.30;99.90
37754;DHT22;23596;52.520;13.464;2022-10-30T17:00:47;17.30;99.90
37754;DHT22;23596;52.520;13.464;2022-10-30T17:03:12;17.20;99.90
37754;DHT22;23596;52.520;13.464;2022-10-30T17:05:39;17.20;99.90
37754;DHT22;23596;52.520;13.464;2022-10-30T17:13:38;17.10;99.90
37754;DHT22;23596;52.520;13.464;2022-10-30T17:16:17;17.00;99.90
37754;DHT22;23596;52.520;13.464;2022-10-30T17:18:44;17.00;99.90
37754;DHT22;23596;52.520;13.464;2022-10-30T17:21:16;16.90;99.90
37754;DHT22;23596;52.520;13.464;2022-10-30T17:23:49;16.80;99.90
37754;DHT22;23596;52.520;13.464;2022-10-30T17:26:16;16.90;99.90
37754;DHT22;23596;52.520;13.464;2022-10-30T17:28:43;16.80;99.90
37754;DHT22;23596;52.520;13.464;2022-10-30T17:36:30;16.70;99.90
37754;DHT22;23596;52.520;13.464;2022-10-30T17:38:55;16.70;99.90
37754;DHT22;23596;52.520;13.464;2022-10-30T17:41:21;16.70;99.90
37754;DHT22;23596;52.520;13.464;2022-10-30T17:43:48;16.60;99.90
37754;DHT22;23596;52.520;13.464;2022-10-30T17:46:15;16.60;99.90
37754;DHT22;23596;52.520;13.464;2022-10-30T17:48:40;16.50;99.90
37754;DHT22;23596;52.520;13.464;2022-10-30T17:51:14;16.50;99.90
37754;DHT22;23596;52.520;13.464;2022-10-30T17:53:40;16.50;99.90
37754;DHT22;23596;52.520;13.464;2022-10-30T17:56:27;16.40;99.90
37754;DHT22;23596;52.520;13.464;2022-10-30T17:58:53;16.40;99.90
37754;DHT22;23596;52.520;13.464;2022-10-30T18:01:26;16.30;99.90
37754;DHT22;23596;52.520;13.464;2022-10-30T18:03:53;16.30;99.90
37754;DHT22;23596;52.520;13.464;2022-10-30T18:06:24;16.30;99.90